sensor_id;sensor_type;location;lat;lon;timestamp;P1;durP1;ratioP1;P2;durP2;ratioP2
16272;SDS011;8244;50.044;9.006;2022-09-12T00:01:50;18.50;;;11.40;;
16272;SDS011;8244;50.044;9.006;2022-09-12T00:06:53;18.60;;;11.65;;
16272;SDS011;8244;50.044;9.006;2022-09-12T00:11:55;16.63;;;10.93;;
16272;SDS011;8244;50.044;9.006;2022-09-12T00:16:57;16.40;;;10.40;;
16272;SDS011;8244;50.044;9.006;2022-09-12T00:22:00;14.88;;;9.77;;
16272;SDS011;8244;50.044;9.006;2022-09-12T00:27:02;16.23;;;10.35;;
16272;SDS011;8244;50.044;9.006;2022-09-12T00:32:04;15.70;;;10.20;;
16272;SDS011;8244;50.044;9.006;2022-09-12T00:37:07;16.38;;;11.02;;
16272;SDS011;8244;50.044;9.006;2022-09-12T00:42:09;13.38;;;9.73;;
16272;SDS011;8244;50.044;9.006;2022-09-12T00:47:13;16.10;;;10.25;;
16272;SDS011;8244;50.044;9.006;2022-09-12T00:52:21;19.88;;;12.65;;
16272;SDS011;8244;50.044;9.006;2022-09-12T00:57:28;15.90;;;10.20;;
16272;SDS011;8244;50.044;9.006;2022-09-12T01:02:32;15.88;;;10.15;;
16272;SDS011;8244;50.044;9.006;2022-09-12T01:07:35;18.13;;;10.73;;
16272;SDS011;8244;50.044;9.006;2022-09-12T01:12:38;15.70;;;10.82;;
16272;SDS011;8244;50.044;9.006;2022-09-12T01:17:46;13.82;;;9.43;;
16272;SDS011;8244;50.044;9.006;2022-09-12T01:23:09;15.95;;;10.52;;
16272;SDS011;8244;50.044;9.006;2022-09-12T01:28:38;15.68;;;10.07;;
16272;SDS011;8244;50.044;9.006;2022-09-12T01:34:06;14.30;;;9.82;;
16272;SDS011;8244;50.044;9.006;2022-09-12T01:39:19;14.48;;;10.27;;
16272;SDS011;8244;50.044;9.006;2022-09-12T01:44:32;14.55;;;9.20;;
16272;SDS011;8244;50.044;9.006;2022-09-12T01:49:39;15.55;;;9.80;;
16272;SDS011;8244;50.044;9.006;2022-09-12T01:54:48;15.38;;;10.07;;
16272;SDS011;8244;50.044;9.006;2022-09-12T01:59:56;15.27;;;9.68;;
16272;SDS011;8244;50.044;9.006;2022-09-12T02:05:05;13.57;;;8.80;;
16272;SDS011;8244;50.044;9.006;2022-09-12T02:10:12;13.98;;;9.35;;
16272;SDS011;8244;50.044;9.006;2022-09-12T02:15:17;14.23;;;9.95;;
16272;SDS011;8244;50.044;9.006;2022-09-12T02:20:26;15.80;;;10.57;;
16272;SDS011;8244;50.044;9.006;2022-09-12T02:25:30;16.60;;;10.18;;
16272;SDS011;8244;50.044;9.006;2022-09-12T02:30:37;13.00;;;8.63;;
16272;SDS011;8244;50.044;9.006;2022-09-12T02:35:45;17.05;;;11.45;;
16272;SDS011;8244;50.044;9.006;2022-09-12T02:40:50;17.05;;;10.40;;
16272;SDS011;8244;50.044;9.006;2022-09-12T02:45:51;19.00;;;11.07;;
16272;SDS011;8244;50.044;9.006;2022-09-12T02:50:54;16.08;;;10.45;;
16272;SDS011;8244;50.044;9.006;2022-09-12T02:55:56;16.48;;;10.65;;
16272;SDS011;8244;50.044;9.006;2022-09-12T03:00:59;17.65;;;10.30;;
16272;SDS011;8244;50.044;9.006;2022-09-12T03:06:13;14.93;;;9.65;;
16272;SDS011;8244;50.044;9.006;2022-09-12T03:11:23;18.13;;;11.25;;
16272;SDS011;8244;50.044;9.006;2022-09-12T03:16:43;18.10;;;11.07;;
16272;SDS011;8244;50.044;9.006;2022-09-12T03:21:57;17.40;;;10.63;;
16272;SDS011;8244;50.044;9.006;2022-09-12T03:27:08;20.83;;;12.27;;
16272;SDS011;8244;50.044;9.006;2022-09-12T03:32:14;16.98;;;11.10;;
16272;SDS011;8244;50.044;9.006;2022-09-12T03:37:17;19.08;;;11.90;;
16272;SDS011;8244;50.044;9.006;2022-09-12T03:42:18;19.30;;;11.77;;
16272;SDS011;8244;50.044;9.006;2022-09-12T03:47:20;17.50;;;11.50;;
16272;SDS011;8244;50.044;9.006;2022-09-12T03:52:23;16.98;;;11.05;;
16272;SDS011;8244;50.044;9.006;2022-09-12T03:57:25;16.73;;;9.18;;
16272;SDS011;8244;50.044;9.006;2022-09-12T04:02:26;15.80;;;10.23;;
16272;SDS011;8244;50.044;9.006;2022-09-12T04:07:30;15.40;;;9.90;;
16272;SDS011;8244;50.044;9.006;2022-09-12T04:12:31;16.85;;;9.93;;
16272;SDS011;8244;50.044;9.006;2022-09-12T04:17:34;16.02;;;9.60;;
16272;SDS011;8244;50.044;9.006;2022-09-12T04:22:37;16.77;;;10.82;;
16272;SDS011;8244;50.044;9.006;2022-09-12T04:27:39;18.50;;;11.32;;
16272;SDS011;8244;50.044;9.006;2022-09-12T04:32:40;16.00;;;10.52;;
16272;SDS011;8244;50.044;9.006;2022-09-12T04:37:43;17.73;;;12.15;;
16272;SDS011;8244;50.044;9.006;2022-09-12T04:42:45;20.63;;;11.30;;
16272;SDS011;8244;50.044;9.006;2022-09-12T04:47:47;50.17;;;10.43;;
16272;SDS011;8244;50.044;9.006;2022-09-12T04:52:50;19.05;;;10.77;;
16272;SDS011;8244;50.044;9.006;2022-09-12T04:57:52;18.88;;;12.68;;
16272;SDS011;8244;50.044;9.006;2022-09-12T05:02:54;19.00;;;12.40;;
16272;SDS011;8244;50.044;9.006;2022-09-12T05:07:57;17.80;;;11.90;;
16272;SDS011;8244;50.044;9.006;2022-09-12T05:12:58;15.55;;;10.60;;
16272;SDS011;8244;50.044;9.006;2022-09-12T05:18:00;15.38;;;10.57;;
16272;SDS011;8244;50.044;9.006;2022-09-12T05:23:03;16.80;;;10.75;;
16272;SDS011;8244;50.044;9.006;2022-09-12T05:28:05;15.73;;;10.10;;
16272;SDS011;8244;50.044;9.006;2022-09-12T05:33:06;15.05;;;9.75;;
16272;SDS011;8244;50.044;9.006;2022-09-12T05:38:09;18.05;;;11.48;;
16272;SDS011;8244;50.044;9.006;2022-09-12T05:43:11;15.80;;;10.00;;
16272;SDS011;8244;50.044;9.006;2022-09-12T05:48:13;15.00;;;8.85;;
16272;SDS011;8244;50.044;9.006;2022-09-12T05:53:17;14.13;;;9.85;;
16272;SDS011;8244;50.044;9.006;2022-09-12T05:58:19;15.18;;;10.82;;
16272;SDS011;8244;50.044;9.006;2022-09-12T06:03:21;13.60;;;10.05;;
16272;SDS011;8244;50.044;9.006;2022-09-12T06:08:24;16.95;;;11.50;;
16272;SDS011;8244;50.044;9.006;2022-09-12T06:13:26;16.45;;;12.05;;
16272;SDS011;8244;50.044;9.006;2022-09-12T06:18:28;16.13;;;11.23;;
16272;SDS011;8244;50.044;9.006;2022-09-12T06:23:31;15.32;;;10.27;;
16272;SDS011;8244;50.044;9.006;2022-09-12T06:28:34;14.63;;;9.85;;
16272;SDS011;8244;50.044;9.006;2022-09-12T06:33:38;15.57;;;9.63;;
16272;SDS011;8244;50.044;9.006;2022-09-12T06:38:42;15.40;;;9.95;;
16272;SDS011;8244;50.044;9.006;2022-09-12T06:43:45;15.35;;;9.40;;
16272;SDS011;8244;50.044;9.006;2022-09-12T06:48:46;15.48;;;9.45;;
16272;SDS011;8244;50.044;9.006;2022-09-12T06:53:50;13.98;;;10.68;;
16272;SDS011;8244;50.044;9.006;2022-09-12T06:58:52;14.27;;;10.82;;
16272;SDS011;8244;50.044;9.006;2022-09-12T07:03:57;16.75;;;11.75;;
16272;SDS011;8244;50.044;9.006;2022-09-12T07:09:02;15.30;;;11.85;;
16272;SDS011;8244;50.044;9.006;2022-09-12T07:14:06;13.90;;;10.75;;
16272;SDS011;8244;50.044;9.006;2022-09-12T07:19:10;14.88;;;10.00;;
16272;SDS011;8244;50.044;9.006;2022-09-12T07:24:13;14.23;;;9.40;;
16272;SDS011;8244;50.044;9.006;2022-09-12T07:29:15;14.57;;;8.27;;
16272;SDS011;8244;50.044;9.006;2022-09-12T07:34:17;14.20;;;9.10;;
16272;SDS011;8244;50.044;9.006;2022-09-12T07:39:20;12.32;;;7.43;;
16272;SDS011;8244;50.044;9.006;2022-09-12T07:44:21;9.98;;;6.90;;
16272;SDS011;8244;50.044;9.006;2022-09-12T07:49:23;9.73;;;7.07;;
16272;SDS011;8244;50.044;9.006;2022-09-12T07:54:26;9.88;;;6.80;;
16272;SDS011;8244;50.044;9.006;2022-09-12T07:59:28;11.93;;;6.97;;
16272;SDS011;8244;50.044;9.006;2022-09-12T08:04:29;9.00;;;6.10;;
16272;SDS011;8244;50.044;9.006;2022-09-12T08:09:32;11.23;;;6.93;;
16272;SDS011;8244;50.044;9.006;2022-09-12T08:14:34;8.25;;;5.63;;
16272;SDS011;8244;50.044;9.006;2022-09-12T08:19:36;8.70;;;5.97;;
16272;SDS011;8244;50.044;9.006;2022-09-12T08:24:39;8.85;;;5.53;;
16272;SDS011;8244;50.044;9.006;2022-09-12T08:29:41;6.78;;;5.10;;
16272;SDS011;8244;50.044;9.006;2022-09-12T08:34:43;9.45;;;5.50;;
16272;SDS011;8244;50.044;9.006;2022-09-12T08:39:46;10.85;;;4.88;;
16272;SDS011;8244;50.044;9.006;2022-09-12T08:44:54;7.22;;;4.38;;
16272;SDS011;8244;50.044;9.006;2022-09-12T08:50:09;5.32;;;4.15;;
16272;SDS011;8244;50.044;9.006;2022-09-12T08:55:22;5.00;;;3.60;;
16272;SDS011;8244;50.044;9.006;2022-09-12T09:00:32;6.30;;;3.97;;
16272;SDS011;8244;50.044;9.006;2022-09-12T09:05:44;11.32;;;3.90;;
16272;SDS011;8244;50.044;9.006;2022-09-12T09:10:52;5.60;;;3.33;;
16272;SDS011;8244;50.044;9.006;2022-09-12T09:16:00;3.85;;;3.17;;
16272;SDS011;8244;50.044;9.006;2022-09-12T09:21:11;4.03;;;3.40;;
16272;SDS011;8244;50.044;9.006;2022-09-12T09:26:25;5.68;;;3.67;;
16272;SDS011;8244;50.044;9.006;2022-09-12T09:31:29;3.70;;;3.30;;
16272;SDS011;8244;50.044;9.006;2022-09-12T09:36:38;7.00;;;3.10;;
16272;SDS011;8244;50.044;9.006;2022-09-12T09:41:49;3.80;;;3.30;;
16272;SDS011;8244;50.044;9.006;2022-09-12T09:47:02;3.88;;;2.97;;
16272;SDS011;8244;50.044;9.006;2022-09-12T09:52:04;6.13;;;3.22;;
16272;SDS011;8244;50.044;9.006;2022-09-12T10:02:39;7.15;;;3.42;;
16272;SDS011;8244;50.044;9.006;2022-09-12T10:07:48;3.65;;;3.03;;
16272;SDS011;8244;50.044;9.006;2022-09-12T10:12:51;4.97;;;3.25;;
16272;SDS011;8244;50.044;9.006;2022-09-12T10:18:08;4.43;;;3.20;;
16272;SDS011;8244;50.044;9.006;2022-09-12T10:23:18;3.55;;;3.13;;
16272;SDS011;8244;50.044;9.006;2022-09-12T10:28:32;6.07;;;3.35;;
16272;SDS011;8244;50.044;9.006;2022-09-12T10:33:39;5.50;;;3.10;;
16272;SDS011;8244;50.044;9.006;2022-09-12T10:38:47;5.30;;;3.30;;
16272;SDS011;8244;50.044;9.006;2022-09-12T10:43:51;5.80;;;3.20;;
16272;SDS011;8244;50.044;9.006;2022-09-12T10:49:13;4.82;;;3.78;;
16272;SDS011;8244;50.044;9.006;2022-09-12T10:54:24;6.43;;;3.58;;
16272;SDS011;8244;50.044;9.006;2022-09-12T10:59:32;4.90;;;3.45;;
16272;SDS011;8244;50.044;9.006;2022-09-12T11:04:51;3.80;;;3.38;;
16272;SDS011;8244;50.044;9.006;2022-09-12T11:10:02;5.28;;;3.67;;
16272;SDS011;8244;50.044;9.006;2022-09-12T11:15:25;6.35;;;3.53;;
16272;SDS011;8244;50.044;9.006;2022-09-12T11:20:41;4.15;;;3.58;;
16272;SDS011;8244;50.044;9.006;2022-09-12T11:25:55;5.93;;;3.53;;
16272;SDS011;8244;50.044;9.006;2022-09-12T11:31:23;5.72;;;3.53;;
16272;SDS011;8244;50.044;9.006;2022-09-12T11:36:53;6.47;;;3.75;;
16272;SDS011;8244;50.044;9.006;2022-09-12T11:42:03;5.85;;;3.53;;
16272;SDS011;8244;50.044;9.006;2022-09-12T11:47:10;4.53;;;3.83;;
16272;SDS011;8244;50.044;9.006;2022-09-12T11:52:14;5.32;;;3.63;;
16272;SDS011;8244;50.044;9.006;2022-09-12T11:57:17;5.82;;;3.30;;
16272;SDS011;8244;50.044;9.006;2022-09-12T12:02:28;4.13;;;3.42;;
16272;SDS011;8244;50.044;9.006;2022-09-12T12:07:36;5.15;;;3.30;;
16272;SDS011;8244;50.044;9.006;2022-09-12T12:12:41;3.88;;;3.20;;
16272;SDS011;8244;50.044;9.006;2022-09-12T12:17:45;3.80;;;3.33;;
16272;SDS011;8244;50.044;9.006;2022-09-12T12:22:59;4.03;;;2.97;;
16272;SDS011;8244;50.044;9.006;2022-09-12T12:28:01;4.10;;;3.20;;
16272;SDS011;8244;50.044;9.006;2022-09-12T12:33:50;3.35;;;3.00;;
16272;SDS011;8244;50.044;9.006;2022-09-12T12:38:51;3.85;;;2.90;;
16272;SDS011;8244;50.044;9.006;2022-09-12T12:43:53;3.20;;;2.58;;
16272;SDS011;8244;50.044;9.006;2022-09-12T12:49:04;3.28;;;2.83;;
16272;SDS011;8244;50.044;9.006;2022-09-12T12:59:34;4.95;;;2.97;;
16272;SDS011;8244;50.044;9.006;2022-09-12T13:04:37;3.92;;;2.65;;
16272;SDS011;8244;50.044;9.006;2022-09-12T13:09:45;4.07;;;2.60;;
16272;SDS011;8244;50.044;9.006;2022-09-12T13:14:52;3.47;;;2.67;;
16272;SDS011;8244;50.044;9.006;2022-09-12T13:20:05;3.25;;;2.50;;
16272;SDS011;8244;50.044;9.006;2022-09-12T13:25:22;4.35;;;2.72;;
16272;SDS011;8244;50.044;9.006;2022-09-12T13:30:26;3.03;;;2.63;;
16272;SDS011;8244;50.044;9.006;2022-09-12T13:35:34;3.63;;;2.80;;
16272;SDS011;8244;50.044;9.006;2022-09-12T13:40:46;3.65;;;2.95;;
16272;SDS011;8244;50.044;9.006;2022-09-12T13:46:01;5.32;;;2.78;;
16272;SDS011;8244;50.044;9.006;2022-09-12T13:51:04;5.43;;;3.00;;
16272;SDS011;8244;50.044;9.006;2022-09-12T13:56:06;3.42;;;2.70;;
16272;SDS011;8244;50.044;9.006;2022-09-12T14:01:10;3.58;;;3.03;;
16272;SDS011;8244;50.044;9.006;2022-09-12T14:06:15;3.75;;;2.88;;
16272;SDS011;8244;50.044;9.006;2022-09-12T14:11:20;3.15;;;2.85;;
16272;SDS011;8244;50.044;9.006;2022-09-12T14:16:25;3.63;;;2.85;;
16272;SDS011;8244;50.044;9.006;2022-09-12T14:21:31;3.28;;;2.70;;
16272;SDS011;8244;50.044;9.006;2022-09-12T14:26:34;3.63;;;3.00;;
16272;SDS011;8244;50.044;9.006;2022-09-12T14:31:39;4.32;;;3.10;;
16272;SDS011;8244;50.044;9.006;2022-09-12T14:36:44;3.30;;;2.83;;
16272;SDS011;8244;50.044;9.006;2022-09-12T14:41:47;3.70;;;3.13;;
16272;SDS011;8244;50.044;9.006;2022-09-12T14:46:51;4.22;;;3.17;;
16272;SDS011;8244;50.044;9.006;2022-09-12T14:51:55;4.18;;;3.42;;
16272;SDS011;8244;50.044;9.006;2022-09-12T14:56:59;4.70;;;3.20;;
16272;SDS011;8244;50.044;9.006;2022-09-12T15:02:19;4.50;;;3.30;;
16272;SDS011;8244;50.044;9.006;2022-09-12T15:07:30;5.22;;;2.92;;
16272;SDS011;8244;50.044;9.006;2022-09-12T15:12:33;7.85;;;3.20;;
16272;SDS011;8244;50.044;9.006;2022-09-12T15:17:35;4.57;;;3.00;;
16272;SDS011;8244;50.044;9.006;2022-09-12T15:22:38;3.53;;;3.15;;
16272;SDS011;8244;50.044;9.006;2022-09-12T15:27:41;3.30;;;3.00;;
16272;SDS011;8244;50.044;9.006;2022-09-12T15:32:43;7.22;;;3.08;;
16272;SDS011;8244;50.044;9.006;2022-09-12T15:37:46;4.50;;;3.40;;
16272;SDS011;8244;50.044;9.006;2022-09-12T15:42:48;4.43;;;3.30;;
16272;SDS011;8244;50.044;9.006;2022-09-12T15:47:50;6.70;;;3.10;;
16272;SDS011;8244;50.044;9.006;2022-09-12T15:52:53;3.78;;;3.10;;
16272;SDS011;8244;50.044;9.006;2022-09-12T15:57:55;6.32;;;3.70;;
16272;SDS011;8244;50.044;9.006;2022-09-12T16:02:56;4.97;;;2.83;;
16272;SDS011;8244;50.044;9.006;2022-09-12T16:07:59;3.60;;;3.30;;
16272;SDS011;8244;50.044;9.006;2022-09-12T16:13:01;5.80;;;2.90;;
16272;SDS011;8244;50.044;9.006;2022-09-12T16:18:03;2.90;;;2.60;;
16272;SDS011;8244;50.044;9.006;2022-09-12T16:23:06;3.35;;;2.85;;
16272;SDS011;8244;50.044;9.006;2022-09-12T16:28:10;3.70;;;2.88;;
16272;SDS011;8244;50.044;9.006;2022-09-12T16:33:12;3.47;;;3.00;;
16272;SDS011;8244;50.044;9.006;2022-09-12T16:38:15;3.00;;;2.70;;
16272;SDS011;8244;50.044;9.006;2022-09-12T16:43:17;4.55;;;3.00;;
16272;SDS011;8244;50.044;9.006;2022-09-12T16:48:19;4.22;;;2.70;;
16272;SDS011;8244;50.044;9.006;2022-09-12T16:53:22;5.07;;;2.95;;
16272;SDS011;8244;50.044;9.006;2022-09-12T16:58:24;3.00;;;2.60;;
16272;SDS011;8244;50.044;9.006;2022-09-12T17:03:26;3.78;;;2.65;;
16272;SDS011;8244;50.044;9.006;2022-09-12T17:08:29;5.82;;;2.90;;
16272;SDS011;8244;50.044;9.006;2022-09-12T17:13:32;3.75;;;2.90;;
16272;SDS011;8244;50.044;9.006;2022-09-12T17:18:34;4.05;;;2.78;;
16272;SDS011;8244;50.044;9.006;2022-09-12T17:23:37;4.00;;;2.80;;
16272;SDS011;8244;50.044;9.006;2022-09-12T17:28:40;4.25;;;2.90;;
16272;SDS011;8244;50.044;9.006;2022-09-12T17:33:42;3.95;;;2.80;;
16272;SDS011;8244;50.044;9.006;2022-09-12T17:38:45;4.30;;;3.28;;
16272;SDS011;8244;50.044;9.006;2022-09-12T17:43:47;5.28;;;2.90;;
16272;SDS011;8244;50.044;9.006;2022-09-12T17:48:51;5.93;;;3.20;;
16272;SDS011;8244;50.044;9.006;2022-09-12T17:53:58;5.75;;;3.08;;
16272;SDS011;8244;50.044;9.006;2022-09-12T17:59:01;4.35;;;2.90;;
16272;SDS011;8244;50.044;9.006;2022-09-12T18:04:03;12.07;;;3.72;;
16272;SDS011;8244;50.044;9.006;2022-09-12T18:09:07;5.25;;;2.90;;
16272;SDS011;8244;50.044;9.006;2022-09-12T18:14:09;6.03;;;3.08;;
16272;SDS011;8244;50.044;9.006;2022-09-12T18:19:11;6.63;;;3.60;;
16272;SDS011;8244;50.044;9.006;2022-09-12T18:24:15;7.28;;;3.58;;
16272;SDS011;8244;50.044;9.006;2022-09-12T18:29:17;4.47;;;3.65;;
16272;SDS011;8244;50.044;9.006;2022-09-12T18:34:19;4.82;;;3.67;;
16272;SDS011;8244;50.044;9.006;2022-09-12T18:39:22;6.25;;;3.78;;
16272;SDS011;8244;50.044;9.006;2022-09-12T18:44:24;5.18;;;3.70;;
16272;SDS011;8244;50.044;9.006;2022-09-12T18:49:25;5.93;;;4.43;;
16272;SDS011;8244;50.044;9.006;2022-09-12T18:54:29;7.45;;;3.95;;
16272;SDS011;8244;50.044;9.006;2022-09-12T18:59:32;5.60;;;4.00;;
16272;SDS011;8244;50.044;9.006;2022-09-12T19:04:33;7.88;;;3.83;;
16272;SDS011;8244;50.044;9.006;2022-09-12T19:09:37;8.00;;;4.80;;
16272;SDS011;8244;50.044;9.006;2022-09-12T19:14:39;6.70;;;4.13;;
16272;SDS011;8244;50.044;9.006;2022-09-12T19:19:40;5.43;;;4.25;;
16272;SDS011;8244;50.044;9.006;2022-09-12T19:24:43;5.35;;;4.03;;
16272;SDS011;8244;50.044;9.006;2022-09-12T19:29:45;5.57;;;4.25;;
16272;SDS011;8244;50.044;9.006;2022-09-12T19:34:47;7.13;;;4.45;;
16272;SDS011;8244;50.044;9.006;2022-09-12T19:39:49;7.57;;;4.53;;
16272;SDS011;8244;50.044;9.006;2022-09-12T19:44:51;5.78;;;4.45;;
16272;SDS011;8244;50.044;9.006;2022-09-12T19:49:54;7.53;;;4.80;;
16272;SDS011;8244;50.044;9.006;2022-09-12T19:54:57;5.60;;;4.63;;
16272;SDS011;8244;50.044;9.006;2022-09-12T19:59:59;7.63;;;5.13;;
16272;SDS011;8244;50.044;9.006;2022-09-12T20:05:02;9.73;;;5.00;;
16272;SDS011;8244;50.044;9.006;2022-09-12T20:10:05;7.32;;;4.95;;
16272;SDS011;8244;50.044;9.006;2022-09-12T20:15:08;8.98;;;5.50;;
16272;SDS011;8244;50.044;9.006;2022-09-12T20:20:10;7.57;;;5.25;;
16272;SDS011;8244;50.044;9.006;2022-09-12T20:25:14;8.57;;;5.00;;
16272;SDS011;8244;50.044;9.006;2022-09-12T20:30:16;6.18;;;4.70;;
16272;SDS011;8244;50.044;9.006;2022-09-12T20:35:18;7.63;;;5.03;;
16272;SDS011;8244;50.044;9.006;2022-09-12T20:40:21;7.68;;;4.72;;
16272;SDS011;8244;50.044;9.006;2022-09-12T20:45:22;7.22;;;4.75;;
16272;SDS011;8244;50.044;9.006;2022-09-12T20:50:24;9.27;;;5.25;;
16272;SDS011;8244;50.044;9.006;2022-09-12T20:55:27;8.50;;;5.28;;
16272;SDS011;8244;50.044;9.006;2022-09-12T21:00:29;7.07;;;5.18;;
16272;SDS011;8244;50.044;9.006;2022-09-12T21:05:30;8.02;;;5.50;;
16272;SDS011;8244;50.044;9.006;2022-09-12T21:10:34;6.90;;;5.22;;
16272;SDS011;8244;50.044;9.006;2022-09-12T21:15:35;8.07;;;5.38;;
16272;SDS011;8244;50.044;9.006;2022-09-12T21:20:37;7.22;;;5.00;;
16272;SDS011;8244;50.044;9.006;2022-09-12T21:25:40;8.07;;;5.30;;
16272;SDS011;8244;50.044;9.006;2022-09-12T21:30:42;8.90;;;5.45;;
16272;SDS011;8244;50.044;9.006;2022-09-12T21:35:44;9.68;;;5.47;;
16272;SDS011;8244;50.044;9.006;2022-09-12T21:40:47;8.73;;;5.50;;
16272;SDS011;8244;50.044;9.006;2022-09-12T21:45:54;9.57;;;5.88;;
16272;SDS011;8244;50.044;9.006;2022-09-12T21:50:57;9.77;;;5.70;;
16272;SDS011;8244;50.044;9.006;2022-09-12T21:56:01;7.97;;;5.88;;
16272;SDS011;8244;50.044;9.006;2022-09-12T22:01:04;8.75;;;5.28;;
16272;SDS011;8244;50.044;9.006;2022-09-12T22:06:08;10.70;;;6.18;;
16272;SDS011;8244;50.044;9.006;2022-09-12T22:11:12;8.80;;;5.82;;
16272;SDS011;8244;50.044;9.006;2022-09-12T22:16:14;9.48;;;6.10;;
16272;SDS011;8244;50.044;9.006;2022-09-12T22:21:17;8.05;;;5.80;;
16272;SDS011;8244;50.044;9.006;2022-09-12T22:26:22;11.18;;;6.95;;
16272;SDS011;8244;50.044;9.006;2022-09-12T22:31:24;9.93;;;6.43;;
16272;SDS011;8244;50.044;9.006;2022-09-12T22:36:27;10.52;;;7.25;;
16272;SDS011;8244;50.044;9.006;2022-09-12T22:41:30;10.38;;;7.18;;
16272;SDS011;8244;50.044;9.006;2022-09-12T22:46:32;9.63;;;7.10;;
16272;SDS011;8244;50.044;9.006;2022-09-12T22:51:34;10.80;;;7.10;;
16272;SDS011;8244;50.044;9.006;2022-09-12T22:56:37;9.35;;;6.18;;
16272;SDS011;8244;50.044;9.006;2022-09-12T23:01:39;9.23;;;6.43;;
16272;SDS011;8244;50.044;9.006;2022-09-12T23:06:41;9.40;;;6.53;;
16272;SDS011;8244;50.044;9.006;2022-09-12T23:11:44;10.02;;;6.90;;
16272;SDS011;8244;50.044;9.006;2022-09-12T23:16:46;9.65;;;7.28;;
16272;SDS011;8244;50.044;9.006;2022-09-12T23:21:47;12.38;;;6.72;;
16272;SDS011;8244;50.044;9.006;2022-09-12T23:26:50;15.85;;;7.20;;
16272;SDS011;8244;50.044;9.006;2022-09-12T23:31:52;11.52;;;6.85;;
16272;SDS011;8244;50.044;9.006;2022-09-12T23:36:54;11.55;;;7.43;;
16272;SDS011;8244;50.044;9.006;2022-09-12T23:41:57;9.75;;;6.72;;
16272;SDS011;8244;50.044;9.006;2022-09-12T23:46:59;11.48;;;7.13;;
16272;SDS011;8244;50.044;9.006;2022-09-12T23:52:00;9.70;;;6.90;;
16272;SDS011;8244;50.044;9.006;2022-09-12T23:57:04;10.13;;;6.90;;
